createdAt,value
2018-08-03T00:00:09.902Z,60.52
2018-08-03T00:00:19.958Z,60.72
2018-08-03T00:00:29.911Z,60.52
2018-08-03T00:00:39.659Z,61.01
2018-08-03T00:00:49.671Z,60.62
2018-08-03T00:00:59.948Z,60.72
2018-08-03T00:01:09.950Z,60.62
2018-08-03T00:01:20.000Z,60.72
2018-08-03T00:01:30.012Z,60.62
2018-08-03T00:01:39.731Z,60.72
2018-08-03T00:01:50.021Z,60.72
2018-08-03T00:02:00.039Z,60.62
2018-08-03T00:02:10.071Z,61.01
2018-08-03T00:02:20.047Z,61.01
2018-08-03T00:02:30.071Z,60.91
2018-08-03T00:02:40.101Z,61.01
2018-08-03T00:02:50.081Z,60.91
2018-08-03T00:03:00.141Z,61.04
2018-08-03T00:03:10.132Z,61.01
2018-08-03T00:03:20.131Z,61.01
2018-08-03T00:03:30.328Z,60.91
2018-08-03T00:03:39.918Z,61.11
2018-08-03T00:03:50.199Z,61.01
2018-08-03T00:04:00.214Z,60.82
2018-08-03T00:04:10.239Z,61.01
2018-08-03T00:04:20.224Z,60.91
2018-08-03T00:04:30.244Z,60.62
2018-08-03T00:04:40.291Z,60.72
2018-08-03T00:04:50.278Z,60.82
2018-08-03T00:05:00.288Z,61.11
2018-08-03T00:05:10.306Z,60.82
2018-08-03T00:05:20.062Z,60.91
2018-08-03T00:05:30.334Z,60.72
2018-08-03T00:05:40.343Z,60.72
2018-08-03T00:05:50.361Z,60.82
2018-08-03T00:06:00.358Z,60.82
2018-08-03T00:06:10.402Z,60.91
2018-08-03T00:06:20.430Z,60.62
2018-08-03T00:06:30.408Z,60.91
2018-08-03T00:06:40.423Z,60.94
2018-08-03T00:06:50.432Z,60.91
2018-08-03T00:07:00.442Z,60.91
2018-08-03T00:07:10.471Z,61.01
2018-08-03T00:07:20.480Z,61.01
2018-08-03T00:07:30.561Z,61.01
2018-08-03T00:07:40.522Z,60.91
2018-08-03T00:07:50.540Z,60.72
2018-08-03T00:08:00.552Z,60.91
2018-08-03T00:08:10.539Z,61.01
2018-08-03T00:08:20.552Z,60.82
2018-08-03T00:08:30.593Z,60.82
2018-08-03T00:08:40.591Z,60.72
2018-08-03T00:08:50.590Z,60.82
2018-08-03T00:09:00.635Z,60.82
2018-08-03T00:09:10.332Z,60.82
2018-08-03T00:09:20.662Z,60.82
2018-08-03T00:09:30.402Z,60.82
2018-08-03T00:09:40.727Z,61.01
2018-08-03T00:09:50.402Z,60.82
2018-08-03T00:10:00.421Z,60.91
2018-08-03T00:10:10.724Z,61.01
2018-08-03T00:10:20.721Z,60.72
2018-08-03T00:10:30.474Z,60.91
2018-08-03T00:10:40.769Z,61.01
2018-08-03T00:10:50.752Z,60.72
2018-08-03T00:11:00.790Z,60.72
2018-08-03T00:11:10.801Z,60.72
2018-08-03T00:11:20.825Z,60.82
2018-08-03T00:11:30.834Z,60.82
2018-08-03T00:11:40.874Z,61.01
2018-08-03T00:11:50.881Z,61.01
2018-08-03T00:12:00.870Z,61.01
2018-08-03T00:12:10.899Z,61.01
2018-08-03T00:12:20.910Z,60.72
2018-08-03T00:12:30.974Z,60.91
2018-08-03T00:12:40.930Z,61.01
2018-08-03T00:12:50.932Z,60.91
2018-08-03T00:13:00.932Z,60.72
2018-08-03T00:13:10.970Z,60.72
2018-08-03T00:13:20.980Z,61.11
2018-08-03T00:13:30.983Z,60.91
2018-08-03T00:13:40.730Z,60.91
2018-08-03T00:13:51.023Z,61.11
2018-08-03T00:14:01.050Z,61.01
2018-08-03T00:14:11.053Z,61.01
2018-08-03T00:14:21.064Z,61.01
2018-08-03T00:14:30.803Z,61.01
2018-08-03T00:14:41.092Z,61.11
2018-08-03T00:14:50.842Z,61.11
2018-08-03T00:15:01.124Z,61.01
2018-08-03T00:15:11.121Z,61.11
2018-08-03T00:15:21.141Z,61.11
2018-08-03T00:15:31.174Z,61.21
2018-08-03T00:15:40.872Z,61.11
2018-08-03T00:15:51.182Z,61.21
2018-08-03T00:16:01.200Z,61.21
2018-08-03T00:16:11.232Z,61.21
2018-08-03T00:16:21.232Z,61.21
2018-08-03T00:16:30.962Z,61.11
2018-08-03T00:16:41.252Z,61.11
2018-08-03T00:16:51.001Z,61.21
2018-08-03T00:17:01.283Z,61.21
2018-08-03T00:17:11.283Z,61.11
2018-08-03T00:17:21.303Z,61.3
2018-08-03T00:17:31.333Z,61.3
2018-08-03T00:17:41.342Z,61.11
2018-08-03T00:17:51.341Z,61.21
2018-08-03T00:18:01.083Z,61.21
2018-08-03T00:18:11.387Z,61.3
2018-08-03T00:18:21.411Z,61.21
2018-08-03T00:18:31.383Z,61.11
2018-08-03T00:18:41.412Z,61.21
2018-08-03T00:18:51.453Z,60.82
2018-08-03T00:19:01.451Z,61.21
2018-08-03T00:19:11.423Z,61.11
2018-08-03T00:19:21.473Z,61.21
2018-08-03T00:19:31.205Z,61.21
2018-08-03T00:19:41.511Z,61.21
2018-08-03T00:19:51.520Z,61.3
2018-08-03T00:20:01.513Z,61.3
2018-08-03T00:20:11.266Z,61.3
2018-08-03T00:20:21.294Z,61.3
2018-08-03T00:20:31.543Z,61.11
2018-08-03T00:20:41.573Z,61.11
2018-08-03T00:20:51.613Z,61.11
2018-08-03T00:21:01.353Z,61.01
2018-08-03T00:21:11.603Z,61.11
2018-08-03T00:21:21.634Z,61.3
2018-08-03T00:21:31.673Z,61.21
2018-08-03T00:21:41.693Z,61.21
2018-08-03T00:21:51.662Z,61.11
2018-08-03T00:22:01.712Z,61.11
2018-08-03T00:22:11.690Z,61.11
2018-08-03T00:22:21.725Z,61.49
2018-08-03T00:22:31.794Z,61.4
2018-08-03T00:22:41.755Z,61.49
2018-08-03T00:22:51.780Z,61.4
2018-08-03T00:23:01.845Z,61.49
2018-08-03T00:23:11.821Z,61.49
2018-08-03T00:23:21.799Z,61.49
2018-08-03T00:23:31.823Z,61.11
2018-08-03T00:23:41.856Z,61.49
2018-08-03T00:23:51.594Z,61.49
2018-08-03T00:24:01.842Z,61.49
2018-08-03T00:24:11.874Z,61.49
2018-08-03T00:24:21.881Z,61.49
2018-08-03T00:24:31.894Z,61.4
2018-08-03T00:24:41.920Z,61.4
2018-08-03T00:24:51.928Z,61.49
2018-08-03T00:25:01.933Z,61.49
2018-08-03T00:25:11.664Z,61.49
2018-08-03T00:25:21.964Z,61.4
2018-08-03T00:25:31.995Z,61.49
2018-08-03T00:25:42.014Z,61.49
2018-08-03T00:25:52.072Z,61.4
2018-08-03T00:26:02.004Z,61.49
2018-08-03T00:26:12.032Z,61.3
2018-08-03T00:26:22.056Z,61.49
2018-08-03T00:26:32.044Z,61.49
2018-08-03T00:26:42.071Z,61.49
2018-08-03T00:26:52.073Z,61.4
2018-08-03T00:27:02.094Z,61.49
2018-08-03T00:27:12.109Z,61.49
2018-08-03T00:27:22.145Z,61.4
2018-08-03T00:27:32.157Z,61.49
2018-08-03T00:27:42.154Z,61.4
2018-08-03T00:27:51.908Z,61.4
2018-08-03T00:28:02.211Z,61.4
2018-08-03T00:28:12.191Z,61.4
2018-08-03T00:28:21.934Z,61.4
2018-08-03T00:28:31.967Z,61.4
2018-08-03T00:28:42.244Z,61.49
2018-08-03T00:28:52.282Z,61.3
2018-08-03T00:29:02.273Z,61.3
2018-08-03T00:29:12.286Z,61.3
2018-08-03T00:29:22.312Z,61.3
2018-08-03T00:29:32.036Z,61.21
2018-08-03T00:29:42.344Z,61.4
2018-08-03T00:29:52.323Z,61.21
2018-08-03T00:30:02.506Z,61.3
2018-08-03T00:30:12.384Z,61.3
2018-08-03T00:30:22.376Z,61.21
2018-08-03T00:30:32.394Z,61.3
2018-08-03T00:30:42.415Z,61.3
2018-08-03T00:30:52.432Z,61.21
2018-08-03T00:31:02.458Z,61.4
2018-08-03T00:31:12.473Z,61.3
2018-08-03T00:31:22.519Z,61.11
2018-08-03T00:31:32.483Z,61.3
2018-08-03T00:31:42.493Z,61.3
2018-08-03T00:31:52.511Z,61.3
2018-08-03T00:32:02.514Z,61.11
2018-08-03T00:32:12.537Z,61.3
2018-08-03T00:32:22.566Z,61.21
2018-08-03T00:32:32.374Z,61.01
2018-08-03T00:32:42.575Z,61.11
2018-08-03T00:32:52.604Z,61.01
2018-08-03T00:33:02.605Z,61.01
2018-08-03T00:33:12.634Z,61.3
2018-08-03T00:33:22.633Z,61.01
2018-08-03T00:33:32.628Z,61.11
2018-08-03T00:33:42.655Z,61.21
2018-08-03T00:33:52.675Z,61.01
2018-08-03T00:34:02.665Z,61.21
2018-08-03T00:34:12.693Z,61.4
2018-08-03T00:34:22.715Z,61.01
2018-08-03T00:34:32.735Z,61.11
2018-08-03T00:34:42.756Z,61.11
2018-08-03T00:34:52.755Z,61.11
2018-08-03T00:35:02.812Z,61.01
2018-08-03T00:35:12.795Z,61.21
2018-08-03T00:35:22.823Z,61.11
2018-08-03T00:35:32.818Z,61.11
2018-08-03T00:35:42.815Z,61.11
2018-08-03T00:35:52.832Z,61.11
2018-08-03T00:36:02.868Z,61.21
2018-08-03T00:36:12.603Z,61.11
2018-08-03T00:36:22.878Z,61.21
2018-08-03T00:36:32.915Z,61.11
2018-08-03T00:36:42.652Z,61.11
2018-08-03T00:36:52.922Z,61.21
2018-08-03T00:37:02.667Z,61.11
2018-08-03T00:37:12.969Z,61.11
2018-08-03T00:37:22.677Z,61.11
2018-08-03T00:37:32.954Z,61.11
2018-08-03T00:37:43.002Z,61.11
2018-08-03T00:37:53.003Z,61.11
2018-08-03T00:38:03.025Z,61.3
2018-08-03T00:38:13.046Z,61.11
2018-08-03T00:38:23.047Z,61.11
2018-08-03T00:38:33.056Z,61.11
2018-08-03T00:38:42.802Z,61.21
2018-08-03T00:38:53.095Z,61.21
2018-08-03T00:39:03.084Z,61.11
2018-08-03T00:39:13.115Z,61.11
2018-08-03T00:39:22.872Z,61.11
2018-08-03T00:39:33.127Z,61.11
2018-08-03T00:39:42.876Z,61.11
2018-08-03T00:39:52.911Z,61.11
2018-08-03T00:40:03.195Z,61.11
2018-08-03T00:40:13.213Z,61.3
2018-08-03T00:40:22.956Z,61.11
2018-08-03T00:40:33.206Z,61.11
2018-08-03T00:40:43.226Z,61.21
2018-08-03T00:40:52.994Z,61.3
2018-08-03T00:41:03.278Z,61.3
2018-08-03T00:41:13.003Z,61.21
2018-08-03T00:41:23.306Z,61.3
2018-08-03T00:41:33.316Z,61.3
2018-08-03T00:41:43.046Z,61.11
2018-08-03T00:41:53.346Z,61.3
2018-08-03T00:42:03.345Z,61.21
2018-08-03T00:42:13.365Z,61.21
2018-08-03T00:42:23.376Z,61.3
2018-08-03T00:42:33.459Z,61.21
2018-08-03T00:42:43.426Z,61.21
2018-08-03T00:42:53.399Z,60.91
2018-08-03T00:43:03.435Z,61.11
2018-08-03T00:43:13.476Z,60.91
2018-08-03T00:43:23.508Z,61.01
2018-08-03T00:43:33.465Z,61.01
2018-08-03T00:43:43.507Z,61.01
2018-08-03T00:43:53.506Z,61.11
2018-08-03T00:44:03.533Z,61.21
2018-08-03T00:44:13.279Z,61.01
2018-08-03T00:44:23.295Z,61.3
2018-08-03T00:44:33.304Z,61.11
2018-08-03T00:44:43.589Z,61.21
2018-08-03T00:44:53.586Z,61.21
2018-08-03T00:45:03.626Z,61.11
2018-08-03T00:45:13.356Z,60.91
2018-08-03T00:45:23.367Z,61.21
2018-08-03T00:45:33.664Z,61.21
2018-08-03T00:45:43.635Z,61.11
2018-08-03T00:45:53.686Z,61.11
2018-08-03T00:46:03.696Z,61.01
2018-08-03T00:46:13.696Z,61.01
2018-08-03T00:46:23.707Z,61.21
2018-08-03T00:46:33.737Z,61.01
2018-08-03T00:46:43.748Z,61.3
2018-08-03T00:46:53.476Z,61.01
2018-08-03T00:47:03.775Z,61.21
2018-08-03T00:47:13.522Z,61.21
2018-08-03T00:47:23.516Z,61.21
2018-08-03T00:47:33.817Z,61.21
2018-08-03T00:47:43.816Z,61.01
2018-08-03T00:47:53.859Z,61.01
2018-08-03T00:48:03.592Z,61.21
2018-08-03T00:48:13.876Z,61.21
2018-08-03T00:48:23.596Z,61.01
2018-08-03T00:48:33.618Z,61.21
2018-08-03T00:48:43.645Z,61.01
2018-08-03T00:48:53.938Z,61.21
2018-08-03T00:49:03.927Z,61.01
2018-08-03T00:49:13.965Z,61.21
2018-08-03T00:49:23.687Z,61.11
2018-08-03T00:49:33.966Z,61.21
2018-08-03T00:49:44.015Z,61.01
2018-08-03T00:49:54.017Z,61.11
2018-08-03T00:50:04.034Z,61.11
2018-08-03T00:50:14.047Z,61.21
2018-08-03T00:50:24.077Z,61.21
2018-08-03T00:50:34.036Z,61.11
2018-08-03T00:50:44.075Z,61.21
2018-08-03T00:50:54.084Z,61.01
2018-08-03T00:51:04.136Z,61.01
2018-08-03T00:51:14.116Z,61.11
2018-08-03T00:51:24.141Z,61.21
2018-08-03T00:51:34.159Z,61.01
2018-08-03T00:51:43.888Z,61.11
2018-08-03T00:51:54.176Z,61.01
2018-08-03T00:52:04.187Z,61.01
2018-08-03T00:52:13.937Z,61.21
2018-08-03T00:52:24.210Z,61.11
2018-08-03T00:52:34.309Z,61.21
2018-08-03T00:52:44.239Z,61.11
2018-08-03T00:52:54.266Z,61.3
2018-08-03T00:53:04.290Z,61.3
2018-08-03T00:53:14.292Z,61.3
2018-08-03T00:53:24.304Z,61.3
2018-08-03T00:53:34.339Z,61.3
2018-08-03T00:53:44.337Z,61.21
2018-08-03T00:53:54.328Z,61.21
2018-08-03T00:54:04.347Z,61.3
2018-08-03T00:54:14.394Z,61.3
2018-08-03T00:54:24.396Z,61.3
2018-08-03T00:54:34.389Z,61.3
2018-08-03T00:54:44.415Z,61.3
2018-08-03T00:54:54.425Z,61.3
2018-08-03T00:55:04.427Z,61.11
2018-08-03T00:55:14.449Z,61.3
2018-08-03T00:55:24.471Z,61.49
2018-08-03T00:55:34.481Z,61.4
2018-08-03T00:55:44.507Z,61.49
2018-08-03T00:55:54.496Z,61.4
2018-08-03T00:56:04.517Z,61.4
2018-08-03T00:56:14.548Z,61.3
2018-08-03T00:56:24.565Z,61.3
2018-08-03T00:56:34.550Z,61.3
2018-08-03T00:56:44.588Z,61.59
2018-08-03T00:56:54.588Z,61.49
2018-08-03T00:57:04.318Z,61.69
2018-08-03T00:57:14.617Z,61.49
2018-08-03T00:57:24.637Z,61.49
2018-08-03T00:57:34.689Z,61.59
2018-08-03T00:57:44.646Z,61.59
2018-08-03T00:57:54.668Z,61.59
2018-08-03T00:58:04.685Z,61.59
2018-08-03T00:58:14.697Z,61.49
2018-08-03T00:58:24.697Z,61.59
2018-08-03T00:58:34.739Z,61.49
2018-08-03T00:58:44.707Z,61.49
2018-08-03T00:58:54.477Z,61.59
2018-08-03T00:59:04.838Z,61.49
2018-08-03T00:59:14.807Z,61.3
2018-08-03T00:59:24.517Z,61.4
2018-08-03T00:59:34.539Z,61.49
2018-08-03T00:59:44.846Z,61.49
2018-08-03T00:59:54.567Z,61.49
2018-08-03T01:00:04.582Z,61.49
2018-08-03T01:00:14.846Z,61.49
2018-08-03T01:00:24.880Z,61.4
2018-08-03T01:00:34.908Z,61.49
2018-08-03T01:00:44.927Z,61.49
2018-08-03T01:00:54.660Z,61.49
2018-08-03T01:01:04.668Z,61.49
2018-08-03T01:01:14.949Z,61.49
2018-08-03T01:01:24.978Z,61.49
2018-08-03T01:01:34.970Z,61.4
2018-08-03T01:01:45.006Z,61.49
2018-08-03T01:01:54.998Z,61.4
2018-08-03T01:02:04.749Z,61.4
2018-08-03T01:02:15.040Z,61.4
2018-08-03T01:02:25.035Z,61.4
2018-08-03T01:02:35.109Z,61.79
2018-08-03T01:02:45.088Z,61.69
2018-08-03T01:02:55.101Z,61.49
2018-08-03T01:03:05.089Z,61.49
2018-08-03T01:03:15.109Z,61.69
2018-08-03T01:03:24.925Z,61.69
2018-08-03T01:03:35.147Z,61.79
2018-08-03T01:03:45.149Z,61.79
2018-08-03T01:03:54.916Z,61.49
2018-08-03T01:04:05.189Z,61.49
2018-08-03T01:04:15.209Z,61.49
2018-08-03T01:04:24.955Z,61.49
2018-08-03T01:04:35.219Z,61.79
2018-08-03T01:04:45.247Z,61.49
2018-08-03T01:04:54.988Z,61.4
2018-08-03T01:05:05.289Z,61.49
2018-08-03T01:05:15.304Z,61.79
2018-08-03T01:05:25.302Z,61.69
2018-08-03T01:05:35.029Z,61.79
2018-08-03T01:05:45.320Z,61.88
2018-08-03T01:05:55.329Z,61.79
2018-08-03T01:06:05.068Z,61.59
2018-08-03T01:06:15.358Z,61.59
2018-08-03T01:06:25.369Z,61.49
2018-08-03T01:06:35.389Z,61.49
2018-08-03T01:06:45.402Z,61.59
2018-08-03T01:06:55.421Z,61.4
2018-08-03T01:07:05.439Z,61.59
2018-08-03T01:07:15.448Z,61.4
2018-08-03T01:07:25.441Z,61.4
2018-08-03T01:07:35.491Z,61.4
2018-08-03T01:07:45.499Z,61.4
2018-08-03T01:07:55.501Z,61.4
2018-08-03T01:08:05.559Z,61.4
2018-08-03T01:08:15.259Z,61.4
2018-08-03T01:08:25.558Z,61.49
2018-08-03T01:08:35.560Z,61.4
2018-08-03T01:08:45.583Z,61.49
2018-08-03T01:08:55.661Z,61.88
2018-08-03T01:09:05.647Z,61.69
2018-08-03T01:09:15.621Z,61.49
2018-08-03T01:09:25.627Z,61.4
2018-08-03T01:09:35.629Z,61.4
2018-08-03T01:09:45.689Z,61.69
2018-08-03T01:09:55.706Z,61.59
2018-08-03T01:10:05.686Z,61.69
2018-08-03T01:10:15.439Z,61.59
2018-08-03T01:10:25.710Z,61.69
2018-08-03T01:10:35.708Z,61.59
2018-08-03T01:10:45.743Z,61.49
2018-08-03T01:10:55.752Z,61.49
2018-08-03T01:11:05.769Z,61.3
2018-08-03T01:11:15.528Z,61.59
2018-08-03T01:11:25.800Z,61.4
2018-08-03T01:11:35.790Z,61.79
2018-08-03T01:11:45.830Z,61.4
2018-08-03T01:11:55.560Z,61.69
2018-08-03T01:12:05.870Z,61.79
2018-08-03T01:12:15.859Z,61.79
2018-08-03T01:12:25.870Z,61.79
2018-08-03T01:12:35.670Z,61.49
2018-08-03T01:12:45.610Z,61.59
2018-08-03T01:12:55.639Z,61.49
2018-08-03T01:13:05.930Z,61.59
2018-08-03T01:13:15.920Z,61.59
2018-08-03T01:13:25.960Z,61.79
2018-08-03T01:13:35.970Z,61.59
2018-08-03T01:13:45.987Z,61.79
2018-08-03T01:13:55.989Z,61.79
2018-08-03T01:14:06.009Z,61.69
2018-08-03T01:14:16.160Z,61.79
2018-08-03T01:14:26.021Z,61.59
2018-08-03T01:14:36.068Z,61.79
2018-08-03T01:14:46.060Z,61.69
2018-08-03T01:14:55.799Z,61.59
2018-08-03T01:15:06.114Z,61.59
2018-08-03T01:15:16.130Z,61.69
2018-08-03T01:15:26.102Z,61.59
2018-08-03T01:15:35.883Z,61.69
2018-08-03T01:15:46.158Z,61.59
2018-08-03T01:15:56.152Z,61.69
2018-08-03T01:16:06.185Z,61.69
2018-08-03T01:16:16.196Z,61.59
2018-08-03T01:16:25.947Z,61.59
2018-08-03T01:16:36.202Z,61.79
2018-08-03T01:16:46.241Z,61.59
2018-08-03T01:16:56.261Z,61.98
2018-08-03T01:17:06.261Z,61.88
2018-08-03T01:17:16.288Z,61.98
2018-08-03T01:17:26.307Z,61.49
2018-08-03T01:17:36.349Z,61.59
2018-08-03T01:17:46.359Z,61.69
2018-08-03T01:17:56.399Z,61.59
2018-08-03T01:18:06.346Z,61.79
2018-08-03T01:18:16.360Z,61.88
2018-08-03T01:18:26.403Z,61.88
2018-08-03T01:18:36.127Z,61.69
2018-08-03T01:18:46.403Z,61.88
2018-08-03T01:18:56.426Z,61.79
2018-08-03T01:19:06.171Z,61.88
2018-08-03T01:19:16.149Z,61.88
2018-08-03T01:19:26.450Z,61.88
2018-08-03T01:19:36.232Z,61.79
2018-08-03T01:19:46.502Z,61.69
2018-08-03T01:19:56.491Z,61.69
2018-08-03T01:20:06.251Z,61.59
2018-08-03T01:20:16.541Z,61.69
2018-08-03T01:20:26.556Z,62.07
2018-08-03T01:20:36.559Z,61.88
2018-08-03T01:20:46.570Z,61.88
2018-08-03T01:20:56.601Z,61.69
2018-08-03T01:21:06.601Z,61.98
2018-08-03T01:21:16.615Z,61.59
2018-08-03T01:21:26.635Z,61.69
2018-08-03T01:21:36.632Z,61.69
2018-08-03T01:21:46.661Z,61.69
2018-08-03T01:21:56.652Z,61.79
2018-08-03T01:22:06.685Z,62.07
2018-08-03T01:22:16.702Z,61.88
2018-08-03T01:22:26.695Z,61.98
2018-08-03T01:22:36.753Z,62.07
2018-08-03T01:22:46.470Z,61.88
2018-08-03T01:22:56.460Z,62.07
2018-08-03T01:23:06.780Z,61.98
2018-08-03T01:23:16.773Z,61.98
2018-08-03T01:23:26.810Z,61.98
2018-08-03T01:23:36.537Z,61.98
2018-08-03T01:23:46.829Z,62.07
2018-08-03T01:23:56.563Z,61.79
2018-08-03T01:24:06.554Z,62.07
2018-08-03T01:24:16.863Z,61.79
2018-08-03T01:24:26.890Z,62.07
2018-08-03T01:24:36.599Z,62.07
2018-08-03T01:24:46.903Z,61.79
2018-08-03T01:24:56.939Z,61.79
2018-08-03T01:25:06.996Z,61.88
2018-08-03T01:25:16.931Z,61.88
2018-08-03T01:25:27.002Z,61.88
2018-08-03T01:25:36.701Z,61.88
2018-08-03T01:25:46.974Z,61.88
2018-08-03T01:25:56.759Z,61.88
2018-08-03T01:26:07.000Z,61.98
2018-08-03T01:26:17.038Z,61.88
2018-08-03T01:26:27.043Z,61.98
2018-08-03T01:26:37.071Z,61.88
2018-08-03T01:26:47.064Z,62.07
2018-08-03T01:26:57.101Z,61.88
2018-08-03T01:27:07.090Z,61.98
2018-08-03T01:27:16.851Z,61.98
2018-08-03T01:27:27.132Z,61.88
2018-08-03T01:27:37.151Z,61.88
2018-08-03T01:27:47.141Z,61.98
2018-08-03T01:27:57.141Z,61.98
2018-08-03T01:28:07.172Z,61.59
2018-08-03T01:28:17.193Z,61.98
2018-08-03T01:28:27.192Z,61.98
2018-08-03T01:28:36.951Z,62.07
2018-08-03T01:28:47.252Z,62.07
2018-08-03T01:28:57.242Z,62.07
2018-08-03T01:29:07.241Z,61.59
2018-08-03T01:29:17.300Z,62.07
2018-08-03T01:29:27.290Z,62.07
2018-08-03T01:29:37.281Z,61.69
2018-08-03T01:29:47.320Z,61.98
2018-08-03T01:29:57.322Z,62.07
2018-08-03T01:30:07.344Z,61.79
2018-08-03T01:30:17.072Z,62.07
2018-08-03T01:30:27.341Z,62.07
2018-08-03T01:30:37.371Z,61.98
2018-08-03T01:30:47.402Z,62.07
2018-08-03T01:30:57.425Z,61.98
2018-08-03T01:31:07.421Z,61.98
2018-08-03T01:31:17.444Z,61.98
2018-08-03T01:31:27.454Z,62.07
2018-08-03T01:31:37.480Z,62.07
2018-08-03T01:31:47.479Z,62.07
2018-08-03T01:31:57.500Z,62.07
2018-08-03T01:32:07.510Z,61.98
2018-08-03T01:32:17.241Z,62.07
2018-08-03T01:32:27.545Z,62.07
2018-08-03T01:32:37.596Z,62.07
2018-08-03T01:32:47.567Z,61.98
2018-08-03T01:32:57.453Z,61.98
2018-08-03T01:33:07.611Z,62.07
2018-08-03T01:33:17.593Z,62.07
2018-08-03T01:33:27.632Z,61.98
2018-08-03T01:33:37.633Z,62.17
2018-08-03T01:33:47.623Z,62.17
2018-08-03T01:33:57.673Z,61.98
2018-08-03T01:34:07.681Z,61.98
2018-08-03T01:34:17.671Z,62.07
2018-08-03T01:34:27.714Z,62.07
2018-08-03T01:34:37.724Z,62.07
2018-08-03T01:34:47.731Z,62.07
2018-08-03T01:34:57.749Z,62.07
2018-08-03T01:35:07.763Z,61.98
2018-08-03T01:35:17.762Z,62.07
2018-08-03T01:35:27.785Z,62.17
2018-08-03T01:35:37.795Z,62.17
2018-08-03T01:35:47.543Z,62.27
2018-08-03T01:35:57.823Z,62.17
2018-08-03T01:36:07.851Z,62.46
2018-08-03T01:36:17.571Z,62.17
2018-08-03T01:36:27.843Z,62.07
2018-08-03T01:36:37.589Z,62.75
2018-08-03T01:36:47.914Z,62.66
2018-08-03T01:36:57.900Z,62.17
2018-08-03T01:37:07.642Z,62.66
2018-08-03T01:37:17.940Z,62.56
2018-08-03T01:37:27.933Z,62.37
2018-08-03T01:37:38.134Z,62.37
2018-08-03T01:37:48.081Z,62.46
2018-08-03T01:37:58.147Z,62.46
2018-08-03T01:38:08.003Z,62.27
2018-08-03T01:38:18.023Z,62.66
2018-08-03T01:38:28.006Z,62.27
2018-08-03T01:38:38.034Z,62.27
2018-08-03T01:38:48.077Z,62.66
2018-08-03T01:38:58.083Z,62.56
2018-08-03T01:39:08.085Z,62.37
2018-08-03T01:39:17.854Z,62.66
2018-08-03T01:39:28.113Z,62.66
2018-08-03T01:39:38.133Z,62.37
2018-08-03T01:39:48.122Z,62.46
2018-08-03T01:39:58.183Z,62.46
2018-08-03T01:40:08.181Z,62.27
2018-08-03T01:40:18.185Z,62.37
2018-08-03T01:40:28.212Z,62.56
2018-08-03T01:40:38.222Z,62.56
2018-08-03T01:40:48.221Z,62.56
2018-08-03T01:40:58.225Z,62.56
2018-08-03T01:41:08.272Z,62.66
2018-08-03T01:41:18.273Z,62.56
2018-08-03T01:41:28.281Z,62.66
2018-08-03T01:41:38.493Z,62.75
2018-08-03T01:41:48.283Z,62.66
2018-08-03T01:41:58.313Z,62.56
2018-08-03T01:42:08.077Z,62.37
2018-08-03T01:42:18.352Z,62.66
2018-08-03T01:42:28.406Z,62.56
2018-08-03T01:42:38.373Z,62.46
2018-08-03T01:42:48.430Z,62.46
2018-08-03T01:42:58.400Z,62.46
2018-08-03T01:43:08.413Z,62.27
2018-08-03T01:43:18.153Z,62.56
2018-08-03T01:43:28.152Z,62.66
2018-08-03T01:43:38.474Z,62.56
2018-08-03T01:43:48.482Z,62.56
2018-08-03T01:43:58.504Z,62.56
2018-08-03T01:44:08.253Z,62.66
2018-08-03T01:44:18.524Z,62.56
2018-08-03T01:44:28.224Z,62.27
2018-08-03T01:44:38.514Z,62.46
2018-08-03T01:44:48.278Z,62.27
2018-08-03T01:44:58.304Z,62.46
2018-08-03T01:45:08.294Z,62.27
2018-08-03T01:45:18.585Z,62.46
2018-08-03T01:45:28.334Z,62.46
2018-08-03T01:45:38.598Z,62.46
2018-08-03T01:45:48.371Z,62.46
2018-08-03T01:45:58.652Z,62.46
2018-08-03T01:46:08.644Z,62.56
2018-08-03T01:46:18.653Z,62.56
2018-08-03T01:46:28.673Z,62.66
2018-08-03T01:46:38.689Z,62.46
2018-08-03T01:46:48.708Z,62.66
2018-08-03T01:46:58.454Z,62.66
2018-08-03T01:47:08.726Z,62.46
2018-08-03T01:47:18.754Z,62.75
2018-08-03T01:47:28.785Z,62.56
2018-08-03T01:47:38.846Z,62.46
2018-08-03T01:47:48.794Z,62.56
2018-08-03T01:47:58.813Z,62.56
2018-08-03T01:48:08.843Z,62.56
2018-08-03T01:48:18.851Z,62.56
2018-08-03T01:48:28.592Z,62.27
2018-08-03T01:48:38.865Z,62.66
2018-08-03T01:48:48.874Z,62.66
2018-08-03T01:48:58.902Z,62.27
2018-08-03T01:49:08.915Z,62.56
2018-08-03T01:49:19.024Z,62.56
2018-08-03T01:49:28.935Z,62.56
2018-08-03T01:49:38.940Z,62.46
2018-08-03T01:49:48.976Z,62.56
2018-08-03T01:49:58.973Z,62.56
2018-08-03T01:50:09.013Z,62.95
2018-08-03T01:50:19.054Z,62.56
2018-08-03T01:50:29.009Z,63.04
2018-08-03T01:50:39.034Z,63.04
2018-08-03T01:50:49.054Z,62.95
2018-08-03T01:50:58.794Z,62.95
2018-08-03T01:51:08.784Z,62.75
2018-08-03T01:51:18.813Z,62.95
2018-08-03T01:51:29.129Z,62.56
2018-08-03T01:51:39.146Z,63.04
2018-08-03T01:51:48.865Z,62.56
2018-08-03T01:51:59.175Z,62.66
2018-08-03T01:52:09.143Z,62.66
2018-08-03T01:52:19.165Z,62.56
2018-08-03T01:52:29.188Z,62.66
2018-08-03T01:52:39.235Z,62.56
2018-08-03T01:52:48.935Z,62.46
2018-08-03T01:52:59.264Z,62.85
2018-08-03T01:53:09.245Z,62.95
2018-08-03T01:53:19.264Z,62.85
2018-08-03T01:53:29.273Z,62.95
2018-08-03T01:53:39.256Z,62.85
2018-08-03T01:53:49.285Z,62.85
2018-08-03T01:53:59.315Z,62.85
2018-08-03T01:54:09.308Z,62.95
2018-08-03T01:54:19.338Z,62.85
2018-08-03T01:54:29.374Z,62.85
2018-08-03T01:54:39.364Z,62.95
2018-08-03T01:54:49.371Z,62.75
2018-08-03T01:54:59.127Z,62.95
2018-08-03T01:55:09.435Z,62.75
2018-08-03T01:55:19.148Z,62.85
2018-08-03T01:55:29.470Z,62.75
2018-08-03T01:55:39.444Z,62.75
2018-08-03T01:55:49.472Z,62.75
2018-08-03T01:55:59.217Z,62.85
2018-08-03T01:56:09.504Z,62.75
2018-08-03T01:56:19.485Z,62.75
2018-08-03T01:56:29.504Z,62.75
2018-08-03T01:56:39.552Z,62.75
2018-08-03T01:56:49.556Z,62.75
2018-08-03T01:56:59.585Z,62.85
2018-08-03T01:57:09.575Z,62.95
2018-08-03T01:57:19.587Z,62.85
2018-08-03T01:57:29.585Z,62.85
2018-08-03T01:57:39.690Z,62.95
2018-08-03T01:57:49.642Z,62.85
2018-08-03T01:57:59.637Z,62.85
2018-08-03T01:58:09.375Z,62.95
2018-08-03T01:58:19.405Z,62.85
2018-08-03T01:58:29.675Z,62.95
2018-08-03T01:58:39.696Z,62.85
2018-08-03T01:58:49.436Z,62.85
2018-08-03T01:58:59.502Z,62.85
2018-08-03T01:59:09.897Z,62.85
2018-08-03T01:59:19.760Z,62.95
2018-08-03T01:59:29.785Z,62.85
2018-08-03T01:59:39.775Z,62.85
2018-08-03T01:59:49.514Z,62.85
2018-08-03T01:59:59.823Z,62.85
2018-08-03T02:00:09.558Z,62.85
2018-08-03T02:00:19.816Z,62.85
2018-08-03T02:00:29.856Z,62.85
2018-08-03T02:00:39.856Z,62.85
2018-08-03T02:00:49.876Z,62.85
2018-08-03T02:00:59.924Z,62.75
2018-08-03T02:01:09.915Z,62.85
2018-08-03T02:01:19.916Z,62.85
2018-08-03T02:01:29.932Z,62.85
2018-08-03T02:01:39.983Z,62.85
2018-08-03T02:01:49.939Z,62.95
2018-08-03T02:01:59.969Z,62.95
2018-08-03T02:02:09.985Z,62.95
2018-08-03T02:02:20.017Z,62.95
2018-08-03T02:02:30.015Z,62.75
2018-08-03T02:02:40.089Z,62.95
2018-08-03T02:02:50.055Z,62.85
2018-08-03T02:03:00.077Z,62.85
2018-08-03T02:03:10.156Z,62.85
2018-08-03T02:03:20.249Z,62.85
2018-08-03T02:03:29.856Z,62.75
2018-08-03T02:03:40.110Z,62.85
2018-08-03T02:03:50.167Z,62.95
2018-08-03T02:04:00.159Z,62.85
2018-08-03T02:04:10.156Z,62.85
2018-08-03T02:04:20.175Z,62.75
2018-08-03T02:04:30.198Z,62.95
2018-08-03T02:04:40.196Z,62.85
2018-08-03T02:04:50.216Z,62.95
2018-08-03T02:05:00.246Z,62.85
2018-08-03T02:05:10.267Z,62.75
2018-08-03T02:05:20.237Z,62.75
2018-08-03T02:05:30.004Z,62.75
2018-08-03T02:05:40.307Z,62.75
2018-08-03T02:05:50.304Z,62.95
2018-08-03T02:06:00.325Z,62.75
2018-08-03T02:06:10.397Z,62.75
2018-08-03T02:06:20.361Z,62.85
2018-08-03T02:06:30.345Z,62.85
2018-08-03T02:06:40.381Z,62.75
2018-08-03T02:06:50.379Z,62.75
2018-08-03T02:07:00.108Z,62.95
2018-08-03T02:07:10.439Z,62.85
2018-08-03T02:07:20.417Z,62.85
2018-08-03T02:07:30.427Z,62.85
2018-08-03T02:07:40.507Z,62.85
2018-08-03T02:07:50.467Z,62.95
2018-08-03T02:08:00.475Z,62.85
2018-08-03T02:08:10.227Z,62.95
2018-08-03T02:08:20.517Z,62.85
2018-08-03T02:08:30.507Z,62.85
2018-08-03T02:08:40.538Z,62.95
2018-08-03T02:08:50.575Z,62.95
2018-08-03T02:09:00.572Z,62.85
2018-08-03T02:09:10.587Z,62.85
2018-08-03T02:09:20.586Z,62.85
2018-08-03T02:09:30.587Z,62.85